Latest Coastal Weather Observations for Arlington Reef

IDQ60701

Issued at 2:42 am EST Friday 5 March 2021 (issued every 10 minutes, with the page automatically refreshed every 10 minutes)

About coastal observations | Map of coastal stations | Coastal observations for QLD | Marine services | Other Formats
Station Details ID: 200879 Name: ARLINGTON REEF Lat: -16.72 Lon: 146.11 Height: 0.0 m
Data from the previous 72 hours. | See also: Recent months at Arlington Reef
Date/Time
EST
Wind Sea
Height
m
Swell Vis
km
Cloud Weather Temp
°C
Press
MSL
hPa
Rain since
9am
mm
Dir  Spd
kts
Gust
kts
Height
m
Period
s
Dir
05/02:30am S 13 16 - - - - - - - - 1004.6 -
05/02:00am SSE 16 20 - - - - - - - - 1004.6 -
05/01:30am SSE 17 20 - - - - - - - - 1004.3 -
05/01:00am S 20 24 - - - - - - - - 1004.2 -
05/12:30am S 18 21 - - - - - - - - 1004.4 -
05/12:00am SSE 17 20 - - - - - - - - 1004.6 -
 
Date/Time
EST
Wind Sea
Height
m
Swell Vis
km
Cloud Weather Temp
°C
Press
MSL
hPa
Rain since
9am
mm
Dir  Spd
kts
Gust
kts
Height
m
Period
s
Dir
04/11:30pm S 16 18 - - - - - - - - 1004.7 -
04/11:00pm SSE 16 18 - - - - - - - - 1004.7 -
04/10:30pm S 15 18 - - - - - - - - 1004.3 -
04/10:00pm S 16 19 - - - - - - - - 1004.1 -
04/09:30pm S 14 17 - - - - - - - - 1003.9 -
04/09:00pm S 13 14 - - - - - - - - 1003.9 -
04/08:30pm S 15 17 - - - - - - - - 1003.6 -
04/08:00pm S 20 23 - - - - - - - - 1002.9 -
04/07:30pm S 17 21 - - - - - - - - 1002.9 -
04/07:00pm S 17 20 - - - - - - - - 1002.5 -
04/06:30pm S 18 23 - - - - - - - - 1002.1 -
04/06:00pm S 20 24 - - - - - - - - 1002.0 -
04/05:30pm S 23 27 - - - - - - - - 1001.7 -
04/05:00pm S 24 30 - - - - - - - - 1001.2 -
04/04:30pm S 24 30 - - - - - - - - 1000.9 -
04/04:00pm S 25 30 - - - - - - - - 1000.7 -
04/03:30pm S 26 32 - - - - - - - - 1000.2 -
04/03:00pm S 26 33 - - - - - - - - 1000.3 -
04/02:30pm S 24 31 - - - - - - - - 1000.0 -
04/02:00pm S 23 27 - - - - - - - - 1000.4 -
04/01:30pm S 25 31 - - - - - - - - 1000.7 -
04/01:00pm SSW 26 31 - - - - - - - - 1000.7 -
04/12:30pm SSW 26 33 - - - - - - - - 1000.8 -
04/12:00pm SSW 28 34 - - - - - - - - 1001.2 -
04/11:30am S 27 33 - - - - - - - - 1001.2 -
04/11:00am SSW 27 33 - - - - - - - - 1001.4 -
04/10:30am SSW 26 33 - - - - - - - - 1001.6 -
04/10:00am S 26 33 - - - - - - - - 1001.6 -
04/09:30am SSW 26 32 - - - - - - - - 1001.6 -
04/09:00am SSW 25 29 - - - - - - - - 1001.5 -
04/08:30am SSW 25 31 - - - - - - - - 1001.5 -
04/08:00am S 25 31 - - - - - - - - 1001.4 -
04/07:30am SSW 26 31 - - - - - - - - 1000.7 -
04/07:00am S 26 30 - - - - - - - - 1000.4 -
04/06:30am S 26 32 - - - - - - - - 1000.0 -
04/06:00am S 26 33 - - - - - - - - 999.9 -
04/05:30am S 27 33 - - - - - - - - 999.6 -
04/05:00am S 26 31 - - - - - - - - 999.5 -
04/04:30am S 26 33 - - - - - - - - 999.3 -
04/04:00am S 28 36 - - - - - - - - 999.3 -
04/03:30am S 27 33 - - - - - - - - 999.1 -
04/03:00am S 27 34 - - - - - - - - 999.3 -
04/02:30am S 26 32 - - - - - - - - 999.6 -
04/02:00am S 24 31 - - - - - - - - 999.5 -
04/01:30am S 24 30 - - - - - - - - 999.8 -
04/01:00am S 24 31 - - - - - - - - 1000.1 -
04/12:30am S 22 27 - - - - - - - - 1001.0 -
04/12:00am S 22 28 - - - - - - - - 1001.3 -
 
Date/Time
EST
Wind Sea
Height
m
Swell Vis
km
Cloud Weather Temp
°C
Press
MSL
hPa
Rain since
9am
mm
Dir  Spd
kts
Gust
kts
Height
m
Period
s
Dir
03/11:30pm S 23 28 - - - - - - - - 1001.4 -
03/11:00pm S 24 29 - - - - - - - - 1001.3 -
03/10:30pm S 24 31 - - - - - - - - 1001.6 -
03/10:00pm S 24 29 - - - - - - - - 1001.9 -
03/09:30pm S 24 30 - - - - - - - - 1001.6 -
03/09:04pm SSE 27 37 - - - - - - - - 1001.1 -
03/09:00pm SSE 28 33 - - - - - - - - 1001.2 -
03/08:30pm SSE 29 36 - - - - - - - - 1000.9 -
03/08:00pm SSE 27 32 - - - - - - - - 1001.0 -
03/07:30pm SSE 27 34 - - - - - - - - 1001.0 -
03/07:00pm SSE 27 33 - - - - - - - - 1000.9 -
03/06:30pm S 30 37 - - - - - - - - 1000.1 -
03/06:00pm S 27 33 - - - - - - - - 999.9 -
03/05:30pm S 30 36 - - - - - - - - 999.3 -
03/05:00pm S 33 39 - - - - - - - - 998.9 -
03/04:30pm S 35 41 - - - - - - - - 999.0 -
03/04:00pm S 32 39 - - - - - - - - 998.7 -
03/03:41pm S 33 43 - - - - - - - - 998.7 -
03/03:30pm S 34 41 - - - - - - - - 998.8 -
03/03:00pm S 35 43 - - - - - - - - 998.7 -
03/02:30pm S 35 41 - - - - - - - - 999.1 -
03/02:00pm S 34 41 - - - - - - - - 999.2 -
03/01:30pm S 33 41 - - - - - - - - 999.7 -
03/01:00pm S 33 41 - - - - - - - - 1000.1 -
03/12:30pm S 34 43 - - - - - - - - 1000.3 -
03/12:00pm S 34 41 - - - - - - - - 1000.6 -
03/11:30am S 32 39 - - - - - - - - 1000.8 -
03/11:00am S 30 37 - - - - - - - - 1001.4 -
03/10:30am S 27 37 - - - - - - - - 1001.4 -
03/10:00am S 27 32 - - - - - - - - 1001.4 -
03/09:30am S 30 38 - - - - - - - - 1001.3 -
03/09:00am S 32 42 - - - - - - - - 1002.0 -
03/08:58am S 31 42 - - - - - - - - 1001.9 -
03/08:30am S 27 34 - - - - - - - - 1002.0 -
03/08:00am S 29 35 - - - - - - - - 1001.9 -
03/07:30am S 34 39 - - - - - - - - 1000.9 -
03/07:00am S 29 35 - - - - - - - - 1000.9 -
03/06:30am SSE 30 39 - - - - - - - - 1001.0 -
03/06:00am S 29 35 - - - - - - - - 1000.8 -
03/05:30am SSE 32 38 - - - - - - - - 1000.7 -
03/05:25am SSE 32 42 - - - - - - - - 1000.8 -
03/05:00am S 35 42 - - - - - - - - 1000.5 -
03/04:50am S 31 42 - - - - - - - - 1000.1 -
03/04:30am S 29 35 - - - - - - - - 1000.0 -
03/04:00am S 26 34 - - - - - - - - 999.9 -
03/03:30am S 29 37 - - - - - - - - 1000.3 -
03/03:00am SSE 32 38 - - - - - - - - 1000.3 -
03/02:30am SSE 33 42 - - - - - - - - 1000.6 -
03/02:12am S 30 42 - - - - - - - - 1000.6 -
03/02:00am S 28 36 - - - - - - - - 1000.7 -
03/01:30am S 27 31 - - - - - - - - 1001.2 -
03/01:00am SSE 29 35 - - - - - - - - 1001.4 -
03/12:41am SSE 31 41 - - - - - - - - 1001.7 -
03/12:30am SSE 35 43 - - - - - - - - 1001.7 -
03/12:00am SSE 36 49 - - - - - - - - 1002.2 -
 
Date/Time
EST
Wind Sea
Height
m
Swell Vis
km
Cloud Weather Temp
°C
Press
MSL
hPa
Rain since
9am
mm
Dir  Spd
kts
Gust
kts
Height
m
Period
s
Dir
02/11:53pm SSE 31 41 - - - - - - - - 1002.4 -
02/11:30pm SSE 29 35 - - - - - - - - 1002.7 -
02/11:00pm SSE 33 42 - - - - - - - - 1003.0 -
02/10:53pm SSE 28 39 - - - - - - - - 1003.2 -
02/10:30pm SSE 25 31 - - - - - - - - 1003.4 -
02/10:00pm S 28 35 - - - - - - - - 1003.1 -
02/09:32pm SSE 34 44 - - - - - - - - 1002.8 -
02/09:30pm SSE 35 45 - - - - - - - - 1002.8 -
02/09:03pm SSE 31 41 - - - - - - - - 1002.8 -
02/09:00pm SSE 33 42 - - - - - - - - 1002.8 -
02/08:41pm SSE 41 51 - - - - - - - - 1002.2 -
02/08:30pm SSE 42 51 - - - - - - - - 1001.8 -
02/08:22pm SSE 40 50 - - - - - - - - 1001.3 -
02/08:00pm SSE 37 46 - - - - - - - - 1001.6 -
02/07:33pm SSE 36 47 - - - - - - - - 1001.6 -
02/07:30pm SSE 37 47 - - - - - - - - 1001.7 -
02/07:14pm SSE 36 47 - - - - - - - - 1001.4 -
02/07:00pm SSE 35 43 - - - - - - - - 1001.2 -
02/06:36pm SSE 32 42 - - - - - - - - 1000.9 -
02/06:30pm SSE 34 42 - - - - - - - - 1000.9 -
02/06:00pm S 31 39 - - - - - - - - 1000.4 -
02/05:30pm S 35 42 - - - - - - - - 999.9 -
02/05:00pm S 28 35 - - - - - - - - 999.9 -
02/04:47pm S 29 39 - - - - - - - - 1000.2 -
02/04:30pm S 30 35 - - - - - - - - 1000.1 -
02/04:00pm S 29 38 - - - - - - - - 1000.2 -
02/03:30pm S 27 35 - - - - - - - - 1000.1 -
02/03:00pm S 30 37 - - - - - - - - 999.8 -
02/02:44pm S 31 41 - - - - - - - - 1000.2 -
02/02:30pm S 34 40 - - - - - - - - 999.7 -
02/02:00pm S 30 37 - - - - - - - - 1000.0 -
02/01:30pm S 27 33 - - - - - - - - 1001.0 -
02/01:00pm S 29 35 - - - - - - - - 1000.9 -
02/12:30pm S 29 34 - - - - - - - - 1001.1 -
02/12:00pm S 28 34 - - - - - - - - 1001.2 -
02/11:30am S 30 37 - - - - - - - - 1001.3 -
02/11:00am S 30 37 - - - - - - - - 1001.8 -
02/10:36am S 31 41 - - - - - - - - 1001.7 -
02/10:30am S 34 42 - - - - - - - - 1001.8 -
02/10:07am S 31 42 - - - - - - - - 1002.0 -
02/10:00am S 33 42 - - - - - - - - 1002.1 -
02/09:30am S 34 41 - - - - - - - - 1001.7 -
02/09:00am S 30 38 - - - - - - - - 1001.9 -
02/08:30am S 31 37 - - - - - - - - 1001.9 -
02/08:00am S 34 40 - - - - - - - - 1001.7 -
02/07:35am S 31 42 - - - - - - - - 1001.3 -
02/07:30am S 30 37 - - - - - - - - 1001.8 -
02/07:00am S 30 34 - - - - - - - - 1001.1 -
02/06:30am S 31 36 - - - - - - - - 1000.7 -
02/06:00am S 34 39 - - - - - - - - 1000.2 -
02/05:30am S 36 46 - - - - - - - - 1000.2 -
02/05:20am S 36 47 - - - - - - - - 999.7 -
02/05:00am S 37 45 - - - - - - - - 999.7 -
02/04:30am S 35 45 - - - - - - - - 999.2 -
02/04:17am S 38 49 - - - - - - - - 999.5 -
02/04:00am S 39 47 - - - - - - - - 999.3 -
02/03:30am S 35 48 - - - - - - - - 999.3 -
02/03:24am S 33 43 - - - - - - - - 999.3 -
02/03:00am SSE 32 37 - - - - - - - - 999.7 -

Other formats

Comma delimited format used in spreadsheet applications
http://www.bom.gov.au/fwo/IDQ60701/IDQ60701.94284.axf

JavaScript Object Notation format (JSON) in row-major order
http://www.bom.gov.au/fwo/IDQ60701/IDQ60701.94284.json

Data quality

Most of these data are generated automatically and are frequently updated. Quality checks on data are not normally performed. It is possible for incorrect values to appear. Refer to information at About Latest Weather Observations and please check the disclaimer before using these data.